Middletown, CT (06457)

10:14 PM EDT on August 28, 2016 (GMT -0400)
Westfield Ridge | | Change Station

Elev 200 ft 41.56 °N, 72.68 °W | Updated 11 minutes ago

Clear
Clear
69.3 °F
Feels Like 69.3 °F
N
0.0
Wind Variable Wind from SW

Today
High -- | Low -- °F
--% Chance of Precip.
Yesterday
High -- | Low -- °F
Precip. -- in
Pressure 30.16 in
Visibility 10.0 miles
Clouds Clear
Dew Point 64 °F
Humidity 84%
Rainfall 0.00 in
Snow Depth Not available.
6:13 AM 7:29 PM
Waning Crescent, 12% visible
METAR KMMK 290153Z AUTO 16005KT 10SM CLR 23/17 A3016 RMK AO2 SLP211 T02330167 TSNO
Pressure 30.16 in
Visibility 10.0 miles
Clouds Clear
Dew Point 64 °F
Humidity 84%
Rainfall 0.00 in
Snow Depth Not available.
6:13 AM 7:29 PM
Waning Crescent, 12% visible
METAR KMMK 290153Z AUTO 16005KT 10SM CLR 23/17 A3016 RMK AO2 SLP211 T02330167 TSNO

10-Day Weather Forecast

Almanac

Astronomy

Aug. 28, 2016 Rise Set
Actual Time
Civil Twilight
Nautical Twilight
Astronomical Twilight
Moon
Length of Visible Light
Length of Day
Tomorrow will be .
, % of the Moon is Illuminated

Today's Extremes

State Highs State Lows

Community

WunderPhotos

Upload Photos

1,935,771 photos uploaded!

WunderBlog® & News

Nearby

Air Quality

  Air Quality AQ Index Pollutant
Not available.

Snow Depth

Station Depth Elevation

Earthquake Activity

City Distance Mag. Time & Date
Minimum magnitude displayed is 2.5.

Coastal Water Temperatures

Place Temperature

Stations

Nearby Weather Stations

Station Location Temp. Windchill Dew Point Humidity Wind Precip. Elev Updated Type
                   

Watches & Warnings

There are currently no watches in effect.